createdAt,value
2022-09-26T00:01:22.229Z,87.29
2022-09-26T00:03:52.156Z,87.14
2022-09-26T00:06:21.425Z,87.33
2022-09-26T00:08:50.408Z,87.95
2022-09-26T00:11:20.723Z,87.74
2022-09-26T00:13:48.929Z,86.90
2022-09-26T00:16:18.182Z,87.91
2022-09-26T00:18:49.981Z,87.22
2022-09-26T00:21:18.448Z,86.85
2022-09-26T00:23:46.540Z,87.63
2022-09-26T00:26:15.545Z,87.66
2022-09-26T00:28:43.669Z,88.11
2022-09-26T00:31:13.466Z,88.91
2022-09-26T00:33:43.103Z,88.75
2022-09-26T00:36:11.231Z,88.29
2022-09-26T00:38:39.365Z,88.79
2022-09-26T00:41:08.277Z,89.42
2022-09-26T00:43:37.545Z,89.45
2022-09-26T00:46:22.770Z,89.17
2022-09-26T00:48:55.794Z,89.65
2022-09-26T00:51:24.185Z,90.05
2022-09-26T00:53:53.449Z,90.39
2022-09-26T00:56:24.132Z,90.37
2022-09-26T00:58:54.882Z,89.40
2022-09-26T01:01:23.281Z,89.22
2022-09-26T01:03:53.053Z,89.61
2022-09-26T01:06:21.545Z,90.42
2022-09-26T01:08:52.670Z,90.24
2022-09-26T01:11:21.591Z,89.16
2022-09-26T01:13:50.504Z,89.44
2022-09-26T01:16:18.687Z,90.36
2022-09-26T01:18:47.808Z,89.80
2022-09-26T01:21:42.224Z,89.43
2022-09-26T01:24:40.201Z,89.08
2022-09-26T01:27:22.528Z,89.79
2022-09-26T01:30:10.273Z,89.39
2022-09-26T01:33:04.331Z,89.53
2022-09-26T01:35:51.554Z,89.42
2022-09-26T01:38:24.977Z,89.21
2022-09-26T01:41:05.864Z,89.65
2022-09-26T01:43:37.137Z,90.25
2022-09-26T01:46:13.092Z,90.37
2022-09-26T01:48:45.592Z,90.60
2022-09-26T01:51:17.035Z,90.12
2022-09-26T01:53:48.404Z,88.86
2022-09-26T01:56:19.887Z,90.12
2022-09-26T01:58:51.526Z,90.62
2022-09-26T02:01:22.893Z,90.07
2022-09-26T02:03:54.245Z,89.98
2022-09-26T02:06:24.837Z,89.63
2022-09-26T02:08:55.383Z,89.54
2022-09-26T02:11:24.670Z,89.74
2022-09-26T02:13:57.405Z,89.77
2022-09-26T02:16:28.746Z,90.21
2022-09-26T02:18:59.454Z,90.58
2022-09-26T02:21:27.201Z,91.00
2022-09-26T02:23:55.145Z,90.27
2022-09-26T02:26:24.247Z,90.68
2022-09-26T02:28:52.611Z,91.06
2022-09-26T02:31:24.508Z,90.73
2022-09-26T02:33:54.501Z,90.38
2022-09-26T02:36:22.777Z,90.71
2022-09-26T02:38:51.047Z,91.10
2022-09-26T02:41:24.050Z,91.01
2022-09-26T02:44:02.905Z,90.68
2022-09-26T02:46:44.978Z,90.79
2022-09-26T02:49:26.172Z,90.84
2022-09-26T02:52:10.507Z,90.49
2022-09-26T02:54:44.165Z,90.43
2022-09-26T02:57:23.023Z,90.44
2022-09-26T02:59:57.767Z,90.45
2022-09-26T03:02:29.225Z,89.55
2022-09-26T03:05:04.146Z,88.72
2022-09-26T03:07:35.632Z,89.32
2022-09-26T03:10:05.432Z,89.34
2022-09-26T03:12:34.917Z,89.40
2022-09-26T03:15:04.759Z,88.81
2022-09-26T03:17:34.860Z,88.36
2022-09-26T03:20:07.012Z,88.62
2022-09-26T03:22:35.606Z,88.39
2022-09-26T03:25:04.376Z,88.13
2022-09-26T03:27:33.321Z,88.14
2022-09-26T03:30:01.446Z,87.40
2022-09-26T03:32:29.773Z,87.56
2022-09-26T03:34:57.957Z,87.88
2022-09-26T03:37:27.437Z,88.08
2022-09-26T03:39:55.449Z,87.66
2022-09-26T03:42:24.567Z,87.34
2022-09-26T03:44:53.439Z,87.32
2022-09-26T03:47:21.469Z,87.27
2022-09-26T03:49:49.229Z,87.49
2022-09-26T03:52:17.155Z,87.19
2022-09-26T03:54:46.910Z,86.78
2022-09-26T03:57:15.506Z,86.67
2022-09-26T03:59:43.367Z,87.12
2022-09-26T04:02:11.247Z,87.34
2022-09-26T04:04:39.125Z,87.44
2022-09-26T04:07:07.185Z,87.65
2022-09-26T04:09:35.036Z,87.86
2022-09-26T04:12:04.654Z,87.53
2022-09-26T04:14:32.461Z,86.87
2022-09-26T04:17:00.493Z,87.36
2022-09-26T04:19:28.560Z,87.37
2022-09-26T04:21:56.987Z,87.54
2022-09-26T04:24:25.002Z,87.50
2022-09-26T04:26:52.972Z,87.49
2022-09-26T04:29:22.586Z,87.04
2022-09-26T04:31:51.526Z,87.13
2022-09-26T04:34:22.377Z,86.40
2022-09-26T04:36:54.274Z,87.00
2022-09-26T04:39:22.363Z,86.67
2022-09-26T04:41:50.234Z,86.95
2022-09-26T04:44:18.271Z,87.14
2022-09-26T04:46:48.066Z,87.36
2022-09-26T04:49:16.185Z,87.48
2022-09-26T04:51:44.827Z,87.70
2022-09-26T04:54:12.651Z,88.05
2022-09-26T04:56:40.545Z,88.04
2022-09-26T04:59:08.402Z,87.53
2022-09-26T05:01:36.256Z,87.44
2022-09-26T05:04:05.757Z,87.81
2022-09-26T05:06:33.725Z,87.58
2022-09-26T05:09:01.979Z,87.63
2022-09-26T05:11:29.963Z,87.48
2022-09-26T05:13:57.790Z,87.53
2022-09-26T05:16:28.290Z,87.19
2022-09-26T05:18:56.744Z,87.39
2022-09-26T05:21:26.244Z,86.60
2022-09-26T05:24:11.399Z,86.41
2022-09-26T05:26:44.568Z,85.76
2022-09-26T05:29:12.595Z,85.58
2022-09-26T05:31:41.175Z,85.21
2022-09-26T05:34:14.358Z,85.73
2022-09-26T05:36:47.897Z,85.88
2022-09-26T05:39:32.868Z,86.32
2022-09-26T05:42:01.077Z,86.49
2022-09-26T05:44:30.881Z,86.69
2022-09-26T05:46:59.260Z,86.94
2022-09-26T05:49:27.801Z,87.18
2022-09-26T05:51:57.657Z,87.14
2022-09-26T05:54:25.550Z,86.39
2022-09-26T05:56:53.420Z,86.29
2022-09-26T05:59:21.219Z,86.37
2022-09-26T06:01:49.419Z,86.83
2022-09-26T06:04:17.357Z,87.19
2022-09-26T06:06:45.375Z,87.42
2022-09-26T06:09:15.042Z,87.28
2022-09-26T06:11:43.061Z,87.60
2022-09-26T06:14:11.176Z,87.56
2022-09-26T06:16:39.139Z,87.82
2022-09-26T06:19:07.101Z,87.86
2022-09-26T06:21:34.974Z,87.94
2022-09-26T06:24:03.308Z,88.15
2022-09-26T06:26:32.797Z,88.09
2022-09-26T06:29:01.158Z,88.00
2022-09-26T06:31:29.986Z,87.74
2022-09-26T06:33:59.658Z,87.90
2022-09-26T06:36:27.653Z,87.81
2022-09-26T06:38:56.180Z,87.82
2022-09-26T06:41:26.046Z,87.33
2022-09-26T06:43:55.706Z,86.52
2022-09-26T06:46:23.631Z,87.10
2022-09-26T06:48:51.568Z,87.12
2022-09-26T06:51:20.145Z,86.96
2022-09-26T06:53:48.064Z,86.63
2022-09-26T06:56:16.049Z,86.48
2022-09-26T06:58:43.904Z,86.41
2022-09-26T07:01:14.538Z,86.36
2022-09-26T07:03:45.632Z,84.33
2022-09-26T07:06:14.283Z,85.02
2022-09-26T07:11:41.964Z,83.79
2022-09-26T07:14:19.680Z,83.84
2022-09-26T07:16:49.703Z,82.75
2022-09-26T07:19:18.688Z,83.06
2022-09-26T07:21:47.013Z,82.92
2022-09-26T07:24:15.331Z,82.66
2022-09-26T07:26:43.343Z,83.24
2022-09-26T07:29:12.444Z,82.97
2022-09-26T07:31:40.609Z,82.76
2022-09-26T07:34:15.825Z,81.95
2022-09-26T07:36:47.484Z,81.79
2022-09-26T07:39:16.104Z,81.33
2022-09-26T07:41:46.006Z,79.71
2022-09-26T07:47:19.653Z,75.39
2022-09-26T07:50:06.689Z,72.11
2022-09-26T07:52:36.002Z,71.96
2022-09-26T07:55:03.900Z,70.32
2022-09-26T07:57:35.595Z,69.09
2022-09-26T08:00:05.876Z,70.42
2022-09-26T08:02:34.225Z,70.59
2022-09-26T08:05:04.941Z,70.71
2022-09-26T08:07:33.615Z,71.26
2022-09-26T08:10:03.096Z,71.42
2022-09-26T08:12:36.518Z,71.62
2022-09-26T08:15:06.269Z,71.26
2022-09-26T08:17:34.681Z,71.82
2022-09-26T08:20:04.011Z,71.84
2022-09-26T08:22:31.852Z,72.02
2022-09-26T08:25:00.302Z,72.38
2022-09-26T08:27:28.536Z,72.10
2022-09-26T08:29:57.014Z,71.23
2022-09-26T08:32:24.881Z,72.25
2022-09-26T08:34:53.120Z,72.37
2022-09-26T08:37:27.848Z,72.55
2022-09-26T08:39:55.901Z,71.81
2022-09-26T08:42:35.737Z,72.68
2022-09-26T08:45:47.774Z,72.87
2022-09-26T08:48:28.568Z,72.78
2022-09-26T08:51:01.464Z,73.02
2022-09-26T08:53:38.658Z,72.83
2022-09-26T08:56:15.497Z,72.62
2022-09-26T08:58:45.816Z,72.80
2022-09-26T09:01:18.502Z,72.15
2022-09-26T09:03:51.869Z,71.09
2022-09-26T09:06:20.341Z,70.41
2022-09-26T09:08:51.835Z,69.95
2022-09-26T09:11:30.962Z,68.70
2022-09-26T09:14:06.726Z,67.83
2022-09-26T09:16:51.639Z,65.82
2022-09-26T09:19:24.892Z,65.06
2022-09-26T09:22:04.723Z,64.65
2022-09-26T09:24:46.616Z,64.29
2022-09-26T09:30:18.878Z,60.66
2022-09-26T09:32:52.056Z,60.24
2022-09-26T09:35:22.121Z,59.48
2022-09-26T09:37:52.335Z,59.48
2022-09-26T09:40:28.106Z,59.83
2022-09-26T09:42:59.134Z,59.42
2022-09-26T09:45:31.279Z,58.16
2022-09-26T09:47:59.293Z,58.54
2022-09-26T09:50:37.208Z,57.47
2022-09-26T09:53:14.627Z,57.72
2022-09-26T09:55:52.335Z,56.72
2022-09-26T09:58:30.037Z,56.97
2022-09-26T10:01:02.826Z,58.37
2022-09-26T10:03:37.870Z,59.47
2022-09-26T10:06:44.545Z,58.72
2022-09-26T10:08:57.805Z,58.80
2022-09-26T10:11:51.882Z,58.78
2022-09-26T10:14:28.775Z,59.40
2022-09-26T10:17:18.601Z,58.68
2022-09-26T10:19:46.380Z,59.27
2022-09-26T10:22:20.731Z,60.16
2022-09-26T10:24:49.337Z,60.05
2022-09-26T10:27:24.278Z,60.36
2022-09-26T10:29:57.705Z,61.11
2022-09-26T10:32:25.690Z,60.91
2022-09-26T10:35:19.532Z,59.49
2022-09-26T10:37:50.882Z,59.91
2022-09-26T10:40:42.520Z,60.17
2022-09-26T10:43:23.405Z,60.19
2022-09-26T10:45:54.885Z,60.67
2022-09-26T10:48:27.725Z,61.01
2022-09-26T10:51:00.586Z,60.78
2022-09-26T10:53:33.558Z,61.02
2022-09-26T10:56:03.583Z,60.80
2022-09-26T10:58:36.985Z,60.43
2022-09-26T11:01:04.869Z,58.38
2022-09-26T11:03:36.156Z,57.81
2022-09-26T11:06:04.156Z,57.81
2022-09-26T11:08:32.930Z,56.12
2022-09-26T11:11:04.251Z,55.02
2022-09-26T11:13:41.318Z,56.62
2022-09-26T11:16:11.220Z,56.22
2022-09-26T11:18:44.553Z,55.08
2022-09-26T11:21:28.154Z,56.68
2022-09-26T11:24:03.105Z,56.41
2022-09-26T11:26:36.658Z,56.36
2022-09-26T11:29:11.251Z,54.91
2022-09-26T11:31:42.950Z,55.88
2022-09-26T11:34:15.461Z,56.93
2022-09-26T11:37:05.460Z,56.80
2022-09-26T11:39:44.864Z,55.34
2022-09-26T11:42:24.858Z,54.74
2022-09-26T11:44:58.543Z,54.10
2022-09-26T11:47:58.727Z,53.66
2022-09-26T11:50:40.944Z,52.38
2022-09-26T11:53:19.291Z,50.91
2022-09-26T11:55:57.452Z,51.01
2022-09-26T11:58:33.627Z,51.58
2022-09-26T12:01:13.166Z,52.12
2022-09-26T12:03:56.120Z,51.66
2022-09-26T12:06:33.423Z,51.82
2022-09-26T12:09:27.976Z,50.32
2022-09-26T12:12:03.798Z,49.32
2022-09-26T12:14:44.181Z,49.66
2022-09-26T12:17:19.727Z,49.31
2022-09-26T12:19:55.778Z,49.20
2022-09-26T12:22:31.894Z,49.79
2022-09-26T12:25:19.380Z,50.72
2022-09-26T12:27:53.097Z,48.93
2022-09-26T12:30:23.147Z,51.15
2022-09-26T12:33:04.602Z,60.50
2022-09-26T12:35:49.475Z,62.15
2022-09-26T12:38:38.156Z,64.44
2022-09-26T12:41:20.025Z,64.79
2022-09-26T12:44:13.431Z,62.08
2022-09-26T12:46:54.837Z,64.76
2022-09-26T12:49:35.262Z,66.42
2022-09-26T12:52:11.983Z,66.64
2022-09-26T12:54:50.677Z,66.45
2022-09-26T12:57:27.873Z,65.95
2022-09-26T13:00:20.285Z,62.65
2022-09-26T13:03:09.865Z,61.52
2022-09-26T13:06:10.947Z,61.57
2022-09-26T13:08:47.985Z,60.99
2022-09-26T13:11:21.538Z,60.03
2022-09-26T13:13:59.204Z,60.33
2022-09-26T13:16:34.189Z,61.52
2022-09-26T13:19:07.183Z,61.83
2022-09-26T13:21:45.059Z,59.99
2022-09-26T13:24:18.576Z,58.30
2022-09-26T13:26:50.710Z,58.24
2022-09-26T13:29:21.998Z,58.83
2022-09-26T13:31:58.834Z,56.12
2022-09-26T13:34:34.646Z,56.56
2022-09-26T13:37:04.509Z,56.45
2022-09-26T13:39:35.345Z,56.43
2022-09-26T13:42:07.849Z,56.43
2022-09-26T13:44:49.095Z,56.64
2022-09-26T13:47:21.587Z,56.38
2022-09-26T13:49:55.341Z,56.37
2022-09-26T13:52:35.264Z,54.06
2022-09-26T13:55:05.582Z,53.36
2022-09-26T13:57:39.040Z,54.36
2022-09-26T14:00:41.211Z,54.13
2022-09-26T14:03:42.317Z,54.09
2022-09-26T14:06:29.419Z,54.49
2022-09-26T14:09:29.516Z,52.84
2022-09-26T14:12:34.273Z,53.14
2022-09-26T14:15:20.856Z,52.86
2022-09-26T14:18:06.881Z,51.86
2022-09-26T14:20:53.426Z,51.95
2022-09-26T14:23:39.892Z,52.65
2022-09-26T14:26:14.353Z,52.01
2022-09-26T14:28:51.372Z,51.79
2022-09-26T14:31:34.494Z,50.88
2022-09-26T14:34:15.464Z,52.43
2022-09-26T14:36:44.700Z,51.94
2022-09-26T14:39:26.155Z,52.96
2022-09-26T14:41:55.939Z,53.11
2022-09-26T14:44:25.955Z,53.71
2022-09-26T14:46:54.876Z,53.83
2022-09-26T14:49:25.127Z,54.24
2022-09-26T14:52:00.391Z,55.04
2022-09-26T14:54:32.148Z,54.98
2022-09-26T14:57:03.419Z,55.73
2022-09-26T14:59:43.475Z,55.29
2022-09-26T15:02:28.695Z,53.98
2022-09-26T15:05:23.626Z,54.23
2022-09-26T15:07:53.402Z,54.68
2022-09-26T15:10:25.144Z,53.82
2022-09-26T15:13:04.594Z,54.91
2022-09-26T15:15:40.646Z,53.97
2022-09-26T15:18:12.929Z,54.22
2022-09-26T15:20:42.208Z,53.88
2022-09-26T15:23:21.654Z,53.69
2022-09-26T15:25:50.545Z,54.29
2022-09-26T15:28:22.503Z,54.24
2022-09-26T15:30:50.952Z,54.16
2022-09-26T15:33:19.089Z,54.54
2022-09-26T15:35:54.149Z,55.47
2022-09-26T15:38:22.144Z,55.00
2022-09-26T15:41:01.500Z,55.30
2022-09-26T15:43:34.353Z,56.02
2022-09-26T15:46:07.339Z,56.29
2022-09-26T15:48:44.103Z,54.87
2022-09-26T15:51:14.842Z,55.44
2022-09-26T15:53:45.936Z,55.07
2022-09-26T15:56:18.332Z,55.88
2022-09-26T15:58:49.533Z,55.58
2022-09-26T16:01:19.093Z,55.93
2022-09-26T16:03:57.364Z,57.13
2022-09-26T16:06:29.091Z,56.44
2022-09-26T16:09:00.556Z,56.70
2022-09-26T16:11:29.305Z,57.06
2022-09-26T16:13:58.707Z,57.16
2022-09-26T16:16:30.121Z,56.84
2022-09-26T16:19:00.543Z,56.62
2022-09-26T16:21:32.123Z,57.18
2022-09-26T16:24:02.688Z,57.30
2022-09-26T16:26:43.197Z,57.69
2022-09-26T16:29:12.829Z,57.97
2022-09-26T16:31:47.591Z,57.35
2022-09-26T16:34:23.378Z,58.51
2022-09-26T16:36:51.896Z,59.09
2022-09-26T16:39:24.516Z,58.97
2022-09-26T16:42:02.214Z,59.18
2022-09-26T16:44:35.773Z,60.41
2022-09-26T16:47:05.735Z,60.82
2022-09-26T16:49:46.400Z,61.54
2022-09-26T16:52:28.581Z,62.56
2022-09-26T16:54:57.380Z,63.18
2022-09-26T16:57:28.086Z,62.28
2022-09-26T17:00:19.717Z,63.51
2022-09-26T17:02:46.722Z,64.26
2022-09-26T17:05:19.669Z,63.90
2022-09-26T17:07:49.471Z,64.25
2022-09-26T17:10:18.314Z,63.35
2022-09-26T17:12:51.595Z,63.50
2022-09-26T17:15:24.393Z,63.55
2022-09-26T17:17:54.259Z,63.02
2022-09-26T17:20:23.626Z,63.22
2022-09-26T17:22:51.890Z,63.10
2022-09-26T17:25:20.019Z,63.15
2022-09-26T17:27:50.141Z,63.47
2022-09-26T17:30:20.416Z,63.56
2022-09-26T17:32:51.026Z,63.48
2022-09-26T17:35:24.173Z,63.65
2022-09-26T17:37:52.583Z,63.72
2022-09-26T17:40:24.325Z,63.93
2022-09-26T17:42:55.396Z,63.61
2022-09-26T17:45:29.046Z,63.92
2022-09-26T17:47:59.255Z,64.18
2022-09-26T17:50:29.475Z,63.86
2022-09-26T17:52:58.100Z,64.03
2022-09-26T17:55:27.161Z,63.31
2022-09-26T17:57:55.656Z,64.09
2022-09-26T18:00:25.399Z,63.59
2022-09-26T18:02:56.409Z,64.41
2022-09-26T18:05:26.671Z,64.11
2022-09-26T18:07:56.957Z,63.84
2022-09-26T18:10:30.344Z,64.57
2022-09-26T18:13:00.383Z,64.79
2022-09-26T18:15:30.749Z,65.01
2022-09-26T18:18:00.526Z,64.46
2022-09-26T18:20:34.340Z,64.60
2022-09-26T18:23:02.927Z,64.99
2022-09-26T18:25:30.866Z,65.04
2022-09-26T18:28:08.177Z,64.73
2022-09-26T18:30:39.315Z,64.17
2022-09-26T18:33:07.344Z,64.62
2022-09-26T18:35:35.509Z,63.98
2022-09-26T18:38:03.732Z,64.47
2022-09-26T18:40:31.799Z,64.16
2022-09-26T18:42:59.889Z,63.42
2022-09-26T18:45:30.662Z,63.06
2022-09-26T18:47:59.928Z,63.69
2022-09-26T18:50:34.309Z,63.35
2022-09-26T18:53:02.201Z,64.42
2022-09-26T18:55:47.642Z,64.58
2022-09-26T18:58:27.862Z,63.53
2022-09-26T19:00:57.724Z,63.97
2022-09-26T19:03:30.317Z,63.66
2022-09-26T19:06:02.984Z,63.63
2022-09-26T19:08:35.221Z,62.77
2022-09-26T19:11:06.655Z,62.31
2022-09-26T19:13:34.596Z,62.47
2022-09-26T19:16:02.961Z,62.81
2022-09-26T19:18:32.334Z,61.74
2022-09-26T19:21:00.475Z,62.67
2022-09-26T19:23:31.618Z,62.79
2022-09-26T19:25:59.904Z,62.68
2022-09-26T19:28:29.664Z,62.48
2022-09-26T19:30:57.665Z,62.68
2022-09-26T19:33:25.806Z,62.67
2022-09-26T19:35:55.171Z,62.72
2022-09-26T19:38:24.454Z,62.80
2022-09-26T19:40:53.748Z,61.97
2022-09-26T19:43:22.578Z,62.95
2022-09-26T19:45:52.327Z,62.33
2022-09-26T19:48:23.994Z,61.59
2022-09-26T19:50:52.545Z,61.79
2022-09-26T19:53:23.945Z,62.28
2022-09-26T19:55:52.277Z,62.34
2022-09-26T19:58:22.538Z,63.13
2022-09-26T20:00:52.465Z,62.41
2022-09-26T20:03:22.183Z,62.11
2022-09-26T20:05:50.680Z,63.04
2022-09-26T20:08:20.521Z,63.92
2022-09-26T20:10:49.866Z,65.52
2022-09-26T20:13:18.282Z,65.49
2022-09-26T20:15:46.764Z,66.19
2022-09-26T20:18:18.064Z,65.38
2022-09-26T20:20:48.549Z,65.04
2022-09-26T20:23:19.837Z,65.28
2022-09-26T20:25:49.108Z,65.05
2022-09-26T20:28:16.997Z,64.63
2022-09-26T20:30:55.458Z,64.80
2022-09-26T20:33:24.786Z,64.20
2022-09-26T20:35:57.779Z,63.87
2022-09-26T20:38:31.889Z,63.75
2022-09-26T20:41:03.264Z,63.26
2022-09-26T20:43:33.849Z,64.01
2022-09-26T20:46:04.087Z,64.01
2022-09-26T20:48:34.123Z,64.63
2022-09-26T20:51:02.135Z,65.22
2022-09-26T20:53:30.130Z,65.14
2022-09-26T20:55:57.976Z,64.59
2022-09-26T20:58:27.273Z,65.01
2022-09-26T21:00:55.279Z,65.58
2022-09-26T21:03:25.730Z,67.17
2022-09-26T21:05:53.666Z,67.93
2022-09-26T21:08:26.536Z,69.48
2022-09-26T21:10:54.437Z,71.26
2022-09-26T21:13:22.693Z,71.81
2022-09-26T21:15:52.889Z,71.53
2022-09-26T21:18:24.813Z,72.87
2022-09-26T21:20:53.205Z,73.39
2022-09-26T21:23:22.493Z,73.67
2022-09-26T21:25:50.448Z,74.52
2022-09-26T21:28:26.718Z,73.57
2022-09-26T21:30:58.606Z,74.36
2022-09-26T21:33:26.881Z,74.87
2022-09-26T21:35:54.769Z,73.61
2022-09-26T21:38:22.734Z,73.22
2022-09-26T21:40:54.474Z,72.67
2022-09-26T21:43:24.930Z,71.45
2022-09-26T21:45:52.893Z,72.07
2022-09-26T21:48:22.235Z,71.86
2022-09-26T21:50:57.443Z,71.58
2022-09-26T21:53:28.210Z,71.68
2022-09-26T21:55:58.530Z,72.11
2022-09-26T21:58:31.690Z,72.71
2022-09-26T22:00:59.574Z,72.01
2022-09-26T22:03:28.913Z,73.81
2022-09-26T22:05:57.034Z,74.46
2022-09-26T22:08:25.280Z,75.39
2022-09-26T22:10:53.561Z,75.19
2022-09-26T22:13:21.725Z,75.87
2022-09-26T22:15:49.973Z,77.18
2022-09-26T22:18:17.864Z,77.30
2022-09-26T22:20:47.218Z,77.00
2022-09-26T22:23:15.458Z,77.43
2022-09-26T22:25:43.368Z,77.62
2022-09-26T22:28:11.212Z,77.90
2022-09-26T22:30:40.450Z,79.01
2022-09-26T22:33:08.421Z,78.86
2022-09-26T22:35:36.678Z,78.88
2022-09-26T22:38:06.297Z,79.46
2022-09-26T22:40:34.296Z,80.25
2022-09-26T22:43:02.154Z,80.57
2022-09-26T22:45:30.433Z,81.12
2022-09-26T22:47:58.261Z,81.33
2022-09-26T22:50:26.305Z,82.12
2022-09-26T22:52:54.227Z,81.75
2022-09-26T22:55:23.502Z,81.58
2022-09-26T22:57:52.084Z,80.61
2022-09-26T23:00:20.099Z,81.04
2022-09-26T23:02:48.006Z,81.99
2022-09-26T23:05:16.040Z,82.04
2022-09-26T23:07:43.908Z,81.59
2022-09-26T23:10:12.257Z,81.77
2022-09-26T23:12:42.262Z,81.47
2022-09-26T23:15:11.266Z,82.11
2022-09-26T23:17:39.608Z,82.35
2022-09-26T23:20:08.553Z,83.31
2022-09-26T23:22:36.483Z,83.19
2022-09-26T23:25:04.381Z,83.73
2022-09-26T23:27:32.226Z,83.58
2022-09-26T23:30:01.777Z,83.80
2022-09-26T23:32:29.719Z,84.27
2022-09-26T23:34:57.660Z,84.71
2022-09-26T23:37:25.556Z,85.03
2022-09-26T23:39:53.598Z,85.03
2022-09-26T23:42:21.683Z,84.80
2022-09-26T23:44:50.223Z,84.53
2022-09-26T23:47:19.514Z,83.96
2022-09-26T23:49:47.498Z,84.69
2022-09-26T23:52:19.081Z,83.90
2022-09-26T23:54:47.201Z,84.70
2022-09-26T23:57:15.057Z,84.33
2022-09-26T23:59:42.862Z,84.19
